Aviation Digital Data Service (ADDS)

Output produced by METARs form (0154 UTC 18 October 2017)
found at http://www.aviationweather.gov/adds/metars/
 
KROW 180151Z 17008KT 10SM CLR 19/06 A3012 RMK AO2 SLP164 T01890061
KROW 180051Z 16005KT 10SM CLR 20/05 A3010 RMK AO2 SLP160 T02000050
KROW 172351Z 17005KT 10SM CLR 25/04 A3010 RMK AO2 SLP152 T02500039 10272 20194 56011
KROW 172251Z 18008KT 10SM CLR 27/02 A3011 RMK AO2 SLP154 T02670022
KROW 172151Z 17011KT 10SM CLR 27/01 A3012 RMK AO2 SLP156 T02720011
KROW 172051Z AUTO 16009KT 10SM CLR 27/02 A3014 RMK AO2 SLP160 T02670022 58034
KROW 171951Z 16006KT 10SM CLR 25/05 A3017 RMK AO2 SLP177 T02500050
KROW 171851Z 14004KT 10SM CLR 22/06 A3022 RMK AO2 SLP194 T02170056
KROW 171751Z VRB04KT 10SM CLR 19/06 A3025 RMK AO2 SLP205 T01940061 10194 20050 58010
KROW 171651Z 00000KT 10SM CLR 16/06 A3028 RMK AO2 SLP220 T01610056
KROW 171551Z 00000KT 10SM CLR 13/06 A3028 RMK AO2 SLP222 T01330056
KROW 171451Z 00000KT 10SM CLR 09/05 A3028 RMK AO2 SLP228 T00940050 53007
KROW 171351Z 00000KT 10SM CLR 07/04 A3027 RMK AO2 SLP224 T00670039
KROW 171251Z 32004KT 10SM CLR 06/03 A3026 RMK AO2 SLP218 T00560033
KROW 171151Z 00000KT 10SM CLR 06/03 A3026 RMK AO2 SLP213 T00560033 10100 20039 55006
KROW 171051Z AUTO 23004KT 10SM CLR 04/03 A3026 RMK AO2 SLP212 T00440028
KROW 170951Z AUTO 25005KT 10SM CLR 06/03 A3027 RMK AO2 SLP212 T00560033
KROW 170851Z AUTO 28004KT 10SM CLR 08/03 A3028 RMK AO2 SLP215 T00780033 56007
KROW 170751Z AUTO 19005KT 10SM CLR 06/03 A3028 RMK AO2 SLP219 T00610033
KROW 170651Z AUTO 19004KT 10SM CLR 07/04 A3029 RMK AO2 SLP221 T00720039 402280056
KROW 170551Z AUTO 20003KT 10SM CLR 10/03 A3030 RMK AO2 SLP224 T01000033 10206 20083 58002
KROW 170451Z AUTO 22004KT 10SM CLR 09/04 A3031 RMK AO2 SLP232 T00940039
KROW 170351Z AUTO 26006KT 10SM CLR 12/04 A3031 RMK AO2 SLP234 T01170039
KROW 170251Z AUTO 20005KT 10SM CLR 11/03 A3031 RMK AO2 SLP237 T01110033 51005
KROW 172320Z 1800/1824 16008KT P6SM FEW250 
     FM180300 20005KT P6SM BKN250 
     FM181900 16007KT P6SM BKN250